sensor_id;sensor_type;location;lat;lon;timestamp;P1;durP1;ratioP1;P2;durP2;ratioP2
2562;SDS011;1291;51.420;6.970;2023-06-22T00:02:11;4.88;;;4.38;;
2562;SDS011;1291;51.420;6.970;2023-06-22T00:04:36;5.70;;;4.85;;
2562;SDS011;1291;51.420;6.970;2023-06-22T00:07:01;6.97;;;4.70;;
2562;SDS011;1291;51.420;6.970;2023-06-22T00:09:27;4.68;;;4.28;;
2562;SDS011;1291;51.420;6.970;2023-06-22T00:11:52;5.57;;;4.60;;
2562;SDS011;1291;51.420;6.970;2023-06-22T00:14:17;4.63;;;4.13;;
2562;SDS011;1291;51.420;6.970;2023-06-22T00:16:42;6.95;;;5.28;;
2562;SDS011;1291;51.420;6.970;2023-06-22T00:19:08;8.10;;;5.60;;
2562;SDS011;1291;51.420;6.970;2023-06-22T00:21:36;8.77;;;5.30;;
2562;SDS011;1291;51.420;6.970;2023-06-22T00:24:03;7.47;;;5.53;;
2562;SDS011;1291;51.420;6.970;2023-06-22T00:26:29;9.40;;;6.43;;
2562;SDS011;1291;51.420;6.970;2023-06-22T00:28:54;6.53;;;5.82;;
2562;SDS011;1291;51.420;6.970;2023-06-22T00:31:20;9.35;;;6.13;;
2562;SDS011;1291;51.420;6.970;2023-06-22T00:33:45;10.30;;;5.70;;
2562;SDS011;1291;51.420;6.970;2023-06-22T00:36:13;8.13;;;6.15;;
2562;SDS011;1291;51.420;6.970;2023-06-22T00:38:41;7.30;;;5.63;;
2562;SDS011;1291;51.420;6.970;2023-06-22T00:41:06;10.07;;;5.55;;
2562;SDS011;1291;51.420;6.970;2023-06-22T00:43:32;7.88;;;5.63;;
2562;SDS011;1291;51.420;6.970;2023-06-22T00:45:57;9.65;;;5.57;;
2562;SDS011;1291;51.420;6.970;2023-06-22T00:48:23;5.40;;;4.85;;
2562;SDS011;1291;51.420;6.970;2023-06-22T00:50:49;8.05;;;5.38;;
2562;SDS011;1291;51.420;6.970;2023-06-22T00:53:16;6.75;;;5.25;;
2562;SDS011;1291;51.420;6.970;2023-06-22T00:55:43;6.85;;;5.05;;
2562;SDS011;1291;51.420;6.970;2023-06-22T00:58:10;8.35;;;4.82;;
2562;SDS011;1291;51.420;6.970;2023-06-22T01:00:36;8.82;;;5.38;;
2562;SDS011;1291;51.420;6.970;2023-06-22T01:03:03;10.82;;;6.13;;
2562;SDS011;1291;51.420;6.970;2023-06-22T01:05:29;5.82;;;5.22;;
2562;SDS011;1291;51.420;6.970;2023-06-22T01:13:01;8.50;;;5.55;;
2562;SDS011;1291;51.420;6.970;2023-06-22T01:18:27;8.77;;;5.93;;
2562;SDS011;1291;51.420;6.970;2023-06-22T01:20:55;12.05;;;6.68;;
2562;SDS011;1291;51.420;6.970;2023-06-22T01:23:29;11.15;;;7.50;;
2562;SDS011;1291;51.420;6.970;2023-06-22T01:28:55;11.82;;;7.93;;
2562;SDS011;1291;51.420;6.970;2023-06-22T01:31:24;8.70;;;7.80;;
2562;SDS011;1291;51.420;6.970;2023-06-22T01:33:52;10.48;;;8.43;;
2562;SDS011;1291;51.420;6.970;2023-06-22T01:36:22;12.63;;;8.63;;
2562;SDS011;1291;51.420;6.970;2023-06-22T01:38:49;11.52;;;9.13;;
2562;SDS011;1291;51.420;6.970;2023-06-22T01:41:19;13.38;;;9.80;;
2562;SDS011;1291;51.420;6.970;2023-06-22T01:43:45;10.30;;;8.75;;
2562;SDS011;1291;51.420;6.970;2023-06-22T01:46:12;11.38;;;10.15;;
2562;SDS011;1291;51.420;6.970;2023-06-22T01:48:39;14.07;;;10.30;;
2562;SDS011;1291;51.420;6.970;2023-06-22T01:51:05;12.45;;;10.38;;
2562;SDS011;1291;51.420;6.970;2023-06-22T01:53:30;9.65;;;8.75;;
2562;SDS011;1291;51.420;6.970;2023-06-22T01:55:59;11.45;;;9.82;;
2562;SDS011;1291;51.420;6.970;2023-06-22T01:58:28;12.15;;;9.55;;
2562;SDS011;1291;51.420;6.970;2023-06-22T02:00:58;13.10;;;10.02;;
2562;SDS011;1291;51.420;6.970;2023-06-22T02:03:37;10.98;;;9.77;;
2562;SDS011;1291;51.420;6.970;2023-06-22T02:06:12;13.52;;;10.00;;
2562;SDS011;1291;51.420;6.970;2023-06-22T02:08:48;9.85;;;8.85;;
2562;SDS011;1291;51.420;6.970;2023-06-22T02:11:17;12.13;;;9.63;;
2562;SDS011;1291;51.420;6.970;2023-06-22T02:13:45;14.23;;;9.77;;
2562;SDS011;1291;51.420;6.970;2023-06-22T02:16:11;12.90;;;9.05;;
2562;SDS011;1291;51.420;6.970;2023-06-22T02:18:50;12.93;;;8.43;;
2562;SDS011;1291;51.420;6.970;2023-06-22T02:21:19;14.38;;;8.82;;
2562;SDS011;1291;51.420;6.970;2023-06-22T02:23:45;9.13;;;8.23;;
2562;SDS011;1291;51.420;6.970;2023-06-22T02:26:11;14.10;;;8.50;;
2562;SDS011;1291;51.420;6.970;2023-06-22T02:28:37;11.48;;;9.52;;
2562;SDS011;1291;51.420;6.970;2023-06-22T02:31:05;10.88;;;8.65;;
2562;SDS011;1291;51.420;6.970;2023-06-22T02:33:31;10.45;;;8.60;;
2562;SDS011;1291;51.420;6.970;2023-06-22T02:35:56;9.73;;;8.70;;
2562;SDS011;1291;51.420;6.970;2023-06-22T02:38:22;11.77;;;8.95;;
2562;SDS011;1291;51.420;6.970;2023-06-22T02:40:49;12.13;;;8.73;;
2562;SDS011;1291;51.420;6.970;2023-06-22T02:43:15;10.68;;;9.57;;
2562;SDS011;1291;51.420;6.970;2023-06-22T02:45:40;10.25;;;9.25;;
2562;SDS011;1291;51.420;6.970;2023-06-22T02:48:05;11.05;;;9.70;;
2562;SDS011;1291;51.420;6.970;2023-06-22T02:50:31;11.02;;;9.38;;
2562;SDS011;1291;51.420;6.970;2023-06-22T02:52:56;11.55;;;9.13;;
2562;SDS011;1291;51.420;6.970;2023-06-22T02:55:22;10.48;;;9.38;;
2562;SDS011;1291;51.420;6.970;2023-06-22T02:57:48;11.75;;;8.98;;
2562;SDS011;1291;51.420;6.970;2023-06-22T03:00:17;12.93;;;8.98;;
2562;SDS011;1291;51.420;6.970;2023-06-22T03:02:43;10.70;;;9.50;;
2562;SDS011;1291;51.420;6.970;2023-06-22T03:05:09;10.07;;;9.18;;
2562;SDS011;1291;51.420;6.970;2023-06-22T03:07:38;10.57;;;9.43;;
2562;SDS011;1291;51.420;6.970;2023-06-22T03:10:10;11.00;;;9.80;;
2562;SDS011;1291;51.420;6.970;2023-06-22T03:12:37;11.07;;;9.50;;
2562;SDS011;1291;51.420;6.970;2023-06-22T03:15:04;11.55;;;9.90;;
2562;SDS011;1291;51.420;6.970;2023-06-22T03:17:33;11.43;;;10.32;;
2562;SDS011;1291;51.420;6.970;2023-06-22T03:20:00;17.92;;;12.02;;
2562;SDS011;1291;51.420;6.970;2023-06-22T03:22:25;11.27;;;9.98;;
2562;SDS011;1291;51.420;6.970;2023-06-22T03:24:51;13.90;;;11.30;;
2562;SDS011;1291;51.420;6.970;2023-06-22T03:27:16;13.05;;;11.73;;
2562;SDS011;1291;51.420;6.970;2023-06-22T03:29:41;12.95;;;11.65;;
2562;SDS011;1291;51.420;6.970;2023-06-22T03:32:07;12.82;;;11.13;;
2562;SDS011;1291;51.420;6.970;2023-06-22T03:34:32;14.15;;;11.57;;
2562;SDS011;1291;51.420;6.970;2023-06-22T03:37:04;12.35;;;11.10;;
2562;SDS011;1291;51.420;6.970;2023-06-22T03:39:29;14.15;;;11.18;;
2562;SDS011;1291;51.420;6.970;2023-06-22T03:41:54;12.30;;;11.10;;
2562;SDS011;1291;51.420;6.970;2023-06-22T03:44:20;14.57;;;12.38;;
2562;SDS011;1291;51.420;6.970;2023-06-22T03:46:48;14.10;;;11.95;;
2562;SDS011;1291;51.420;6.970;2023-06-22T03:49:13;12.35;;;11.15;;
2562;SDS011;1291;51.420;6.970;2023-06-22T03:51:38;13.38;;;12.07;;
2562;SDS011;1291;51.420;6.970;2023-06-22T03:54:04;14.98;;;12.20;;
2562;SDS011;1291;51.420;6.970;2023-06-22T03:56:29;12.70;;;11.43;;
2562;SDS011;1291;51.420;6.970;2023-06-22T03:58:58;15.90;;;12.45;;
2562;SDS011;1291;51.420;6.970;2023-06-22T04:01:23;13.57;;;12.18;;
2562;SDS011;1291;51.420;6.970;2023-06-22T04:03:48;13.93;;;12.13;;
2562;SDS011;1291;51.420;6.970;2023-06-22T04:06:14;14.52;;;12.15;;
2562;SDS011;1291;51.420;6.970;2023-06-22T04:08:45;17.05;;;12.35;;
2562;SDS011;1291;51.420;6.970;2023-06-22T04:11:15;17.60;;;13.55;;
2562;SDS011;1291;51.420;6.970;2023-06-22T04:13:41;15.75;;;13.13;;
2562;SDS011;1291;51.420;6.970;2023-06-22T04:16:09;16.58;;;14.00;;
2562;SDS011;1291;51.420;6.970;2023-06-22T04:18:34;15.85;;;14.18;;
2562;SDS011;1291;51.420;6.970;2023-06-22T04:21:00;14.88;;;13.27;;
2562;SDS011;1291;51.420;6.970;2023-06-22T04:23:25;18.65;;;13.80;;
2562;SDS011;1291;51.420;6.970;2023-06-22T04:25:50;15.32;;;13.73;;
2562;SDS011;1291;51.420;6.970;2023-06-22T04:28:16;17.67;;;13.63;;
2562;SDS011;1291;51.420;6.970;2023-06-22T04:30:44;15.40;;;13.90;;
2562;SDS011;1291;51.420;6.970;2023-06-22T04:33:13;15.48;;;13.85;;
2562;SDS011;1291;51.420;6.970;2023-06-22T04:35:39;15.38;;;13.65;;
2562;SDS011;1291;51.420;6.970;2023-06-22T04:38:07;16.40;;;12.70;;
2562;SDS011;1291;51.420;6.970;2023-06-22T04:40:33;16.35;;;13.55;;
2562;SDS011;1291;51.420;6.970;2023-06-22T04:42:59;15.48;;;13.82;;
2562;SDS011;1291;51.420;6.970;2023-06-22T04:45:27;15.43;;;13.90;;
2562;SDS011;1291;51.420;6.970;2023-06-22T04:47:53;15.70;;;13.80;;
2562;SDS011;1291;51.420;6.970;2023-06-22T04:50:18;14.27;;;12.82;;
2562;SDS011;1291;51.420;6.970;2023-06-22T04:52:46;16.33;;;13.75;;
2562;SDS011;1291;51.420;6.970;2023-06-22T04:55:11;17.67;;;14.50;;
2562;SDS011;1291;51.420;6.970;2023-06-22T04:57:37;14.75;;;13.25;;
2562;SDS011;1291;51.420;6.970;2023-06-22T05:00:04;15.63;;;14.02;;
2562;SDS011;1291;51.420;6.970;2023-06-22T05:02:39;18.90;;;13.57;;
2562;SDS011;1291;51.420;6.970;2023-06-22T05:05:05;15.45;;;13.02;;
2562;SDS011;1291;51.420;6.970;2023-06-22T05:07:32;17.42;;;14.30;;
2562;SDS011;1291;51.420;6.970;2023-06-22T05:09:58;15.57;;;14.07;;
2562;SDS011;1291;51.420;6.970;2023-06-22T05:12:24;15.48;;;13.80;;
2562;SDS011;1291;51.420;6.970;2023-06-22T05:14:49;18.25;;;14.05;;
2562;SDS011;1291;51.420;6.970;2023-06-22T05:17:14;16.27;;;12.85;;
2562;SDS011;1291;51.420;6.970;2023-06-22T05:19:44;17.08;;;14.70;;
2562;SDS011;1291;51.420;6.970;2023-06-22T05:22:13;19.63;;;13.85;;
2562;SDS011;1291;51.420;6.970;2023-06-22T05:24:39;17.10;;;14.93;;
2562;SDS011;1291;51.420;6.970;2023-06-22T05:27:04;17.48;;;15.48;;
2562;SDS011;1291;51.420;6.970;2023-06-22T05:29:30;17.70;;;15.10;;
2562;SDS011;1291;51.420;6.970;2023-06-22T05:31:55;18.85;;;16.92;;
2562;SDS011;1291;51.420;6.970;2023-06-22T05:34:22;19.73;;;16.10;;
2562;SDS011;1291;51.420;6.970;2023-06-22T05:36:47;19.48;;;16.75;;
2562;SDS011;1291;51.420;6.970;2023-06-22T05:39:13;18.33;;;16.35;;
2562;SDS011;1291;51.420;6.970;2023-06-22T05:41:39;17.98;;;16.08;;
2562;SDS011;1291;51.420;6.970;2023-06-22T05:44:04;19.70;;;17.60;;
2562;SDS011;1291;51.420;6.970;2023-06-22T05:46:29;18.10;;;16.40;;
2562;SDS011;1291;51.420;6.970;2023-06-22T05:48:57;20.58;;;16.35;;
2562;SDS011;1291;51.420;6.970;2023-06-22T05:51:23;19.48;;;15.75;;
2562;SDS011;1291;51.420;6.970;2023-06-22T05:53:48;19.40;;;16.05;;
2562;SDS011;1291;51.420;6.970;2023-06-22T05:56:17;18.08;;;16.20;;
2562;SDS011;1291;51.420;6.970;2023-06-22T05:58:43;18.25;;;15.95;;
2562;SDS011;1291;51.420;6.970;2023-06-22T06:01:09;17.90;;;16.13;;
2562;SDS011;1291;51.420;6.970;2023-06-22T06:03:34;17.92;;;16.02;;
2562;SDS011;1291;51.420;6.970;2023-06-22T06:06:05;20.95;;;15.85;;
2562;SDS011;1291;51.420;6.970;2023-06-22T06:08:31;20.30;;;16.10;;
2562;SDS011;1291;51.420;6.970;2023-06-22T06:10:56;17.50;;;15.60;;
2562;SDS011;1291;51.420;6.970;2023-06-22T06:13:22;16.90;;;15.02;;
2562;SDS011;1291;51.420;6.970;2023-06-22T06:15:48;17.35;;;15.45;;
2562;SDS011;1291;51.420;6.970;2023-06-22T06:18:13;19.20;;;15.50;;
2562;SDS011;1291;51.420;6.970;2023-06-22T06:20:38;16.33;;;14.73;;
2562;SDS011;1291;51.420;6.970;2023-06-22T06:23:04;18.98;;;15.75;;
2562;SDS011;1291;51.420;6.970;2023-06-22T06:25:29;18.20;;;16.15;;
2562;SDS011;1291;51.420;6.970;2023-06-22T06:27:54;16.10;;;14.40;;
2562;SDS011;1291;51.420;6.970;2023-06-22T06:30:22;16.17;;;14.48;;
2562;SDS011;1291;51.420;6.970;2023-06-22T06:32:49;16.60;;;14.90;;
2562;SDS011;1291;51.420;6.970;2023-06-22T06:35:15;18.25;;;15.90;;
2562;SDS011;1291;51.420;6.970;2023-06-22T06:37:42;22.42;;;15.35;;
2562;SDS011;1291;51.420;6.970;2023-06-22T06:40:10;16.55;;;14.35;;
2562;SDS011;1291;51.420;6.970;2023-06-22T06:42:37;16.20;;;14.55;;
2562;SDS011;1291;51.420;6.970;2023-06-22T06:45:05;17.20;;;15.18;;
2562;SDS011;1291;51.420;6.970;2023-06-22T06:47:31;16.73;;;14.63;;
2562;SDS011;1291;51.420;6.970;2023-06-22T06:49:57;21.42;;;14.82;;
2562;SDS011;1291;51.420;6.970;2023-06-22T06:52:22;17.35;;;15.38;;
2562;SDS011;1291;51.420;6.970;2023-06-22T06:54:51;18.02;;;15.18;;
2562;SDS011;1291;51.420;6.970;2023-06-22T06:57:17;24.40;;;15.43;;
2562;SDS011;1291;51.420;6.970;2023-06-22T06:59:43;18.27;;;16.33;;
2562;SDS011;1291;51.420;6.970;2023-06-22T07:02:08;19.15;;;16.05;;
2562;SDS011;1291;51.420;6.970;2023-06-22T07:04:34;18.42;;;16.42;;
2562;SDS011;1291;51.420;6.970;2023-06-22T07:07:00;18.40;;;16.52;;
2562;SDS011;1291;51.420;6.970;2023-06-22T07:09:26;17.00;;;15.35;;
2562;SDS011;1291;51.420;6.970;2023-06-22T07:11:58;22.40;;;16.08;;
2562;SDS011;1291;51.420;6.970;2023-06-22T07:14:23;20.65;;;16.63;;
2562;SDS011;1291;51.420;6.970;2023-06-22T07:16:48;18.50;;;16.60;;
2562;SDS011;1291;51.420;6.970;2023-06-22T07:19:24;23.83;;;17.05;;
2562;SDS011;1291;51.420;6.970;2023-06-22T07:21:51;17.83;;;16.02;;
2562;SDS011;1291;51.420;6.970;2023-06-22T07:24:16;18.58;;;16.65;;
2562;SDS011;1291;51.420;6.970;2023-06-22T07:26:42;19.65;;;17.00;;
2562;SDS011;1291;51.420;6.970;2023-06-22T07:29:10;22.17;;;16.92;;
2562;SDS011;1291;51.420;6.970;2023-06-22T07:31:36;18.95;;;16.55;;
2562;SDS011;1291;51.420;6.970;2023-06-22T07:34:02;28.10;;;18.08;;
2562;SDS011;1291;51.420;6.970;2023-06-22T07:36:30;18.83;;;16.67;;
2562;SDS011;1291;51.420;6.970;2023-06-22T07:38:56;20.20;;;17.08;;
2562;SDS011;1291;51.420;6.970;2023-06-22T07:41:21;22.05;;;17.50;;
2562;SDS011;1291;51.420;6.970;2023-06-22T07:43:46;20.40;;;17.90;;
2562;SDS011;1291;51.420;6.970;2023-06-22T07:46:12;19.75;;;17.05;;
2562;SDS011;1291;51.420;6.970;2023-06-22T07:48:37;23.17;;;18.35;;
2562;SDS011;1291;51.420;6.970;2023-06-22T07:51:04;20.60;;;17.55;;
2562;SDS011;1291;51.420;6.970;2023-06-22T07:53:30;20.75;;;17.98;;
2562;SDS011;1291;51.420;6.970;2023-06-22T07:55:56;21.40;;;17.67;;
2562;SDS011;1291;51.420;6.970;2023-06-22T07:58:21;23.33;;;18.80;;
2562;SDS011;1291;51.420;6.970;2023-06-22T08:00:46;21.83;;;17.70;;
2562;SDS011;1291;51.420;6.970;2023-06-22T08:03:12;21.85;;;17.83;;
2562;SDS011;1291;51.420;6.970;2023-06-22T08:05:38;18.83;;;16.85;;
2562;SDS011;1291;51.420;6.970;2023-06-22T08:08:03;18.80;;;16.75;;
2562;SDS011;1291;51.420;6.970;2023-06-22T08:10:29;21.08;;;18.85;;
2562;SDS011;1291;51.420;6.970;2023-06-22T08:12:54;20.08;;;17.98;;
2562;SDS011;1291;51.420;6.970;2023-06-22T08:15:23;21.73;;;19.40;;
2562;SDS011;1291;51.420;6.970;2023-06-22T08:17:48;21.00;;;18.20;;
2562;SDS011;1291;51.420;6.970;2023-06-22T08:20:14;21.60;;;19.02;;
2562;SDS011;1291;51.420;6.970;2023-06-22T08:22:40;25.40;;;18.52;;
2562;SDS011;1291;51.420;6.970;2023-06-22T08:25:06;22.00;;;19.80;;
2562;SDS011;1291;51.420;6.970;2023-06-22T08:27:32;22.08;;;18.80;;
2562;SDS011;1291;51.420;6.970;2023-06-22T08:30:01;21.55;;;17.92;;
2562;SDS011;1291;51.420;6.970;2023-06-22T08:32:27;23.33;;;19.30;;
2562;SDS011;1291;51.420;6.970;2023-06-22T08:34:54;23.58;;;19.02;;
2562;SDS011;1291;51.420;6.970;2023-06-22T08:37:20;21.52;;;18.13;;
2562;SDS011;1291;51.420;6.970;2023-06-22T08:39:45;22.85;;;18.92;;
2562;SDS011;1291;51.420;6.970;2023-06-22T08:42:16;23.67;;;19.27;;
2562;SDS011;1291;51.420;6.970;2023-06-22T08:44:42;25.15;;;20.00;;
2562;SDS011;1291;51.420;6.970;2023-06-22T08:47:07;21.85;;;19.77;;
2562;SDS011;1291;51.420;6.970;2023-06-22T08:49:32;22.25;;;18.92;;
2562;SDS011;1291;51.420;6.970;2023-06-22T08:51:57;22.55;;;19.15;;
2562;SDS011;1291;51.420;6.970;2023-06-22T08:54:23;23.13;;;19.02;;
2562;SDS011;1291;51.420;6.970;2023-06-22T08:56:48;27.70;;;20.10;;
2562;SDS011;1291;51.420;6.970;2023-06-22T08:59:17;32.35;;;20.05;;
2562;SDS011;1291;51.420;6.970;2023-06-22T09:01:42;24.20;;;19.90;;
2562;SDS011;1291;51.420;6.970;2023-06-22T09:04:10;23.95;;;19.90;;
2562;SDS011;1291;51.420;6.970;2023-06-22T09:06:36;21.85;;;18.55;;
2562;SDS011;1291;51.420;6.970;2023-06-22T09:09:06;21.40;;;19.10;;
2562;SDS011;1291;51.420;6.970;2023-06-22T09:11:31;20.20;;;18.20;;
2562;SDS011;1291;51.420;6.970;2023-06-22T09:13:57;20.08;;;18.08;;
2562;SDS011;1291;51.420;6.970;2023-06-22T09:16:22;21.30;;;19.15;;
2562;SDS011;1291;51.420;6.970;2023-06-22T09:18:47;23.20;;;19.38;;
2562;SDS011;1291;51.420;6.970;2023-06-22T09:21:13;20.98;;;18.17;;
2562;SDS011;1291;51.420;6.970;2023-06-22T09:23:38;22.80;;;19.92;;
2562;SDS011;1291;51.420;6.970;2023-06-22T09:26:04;22.33;;;19.77;;
2562;SDS011;1291;51.420;6.970;2023-06-22T09:28:29;24.02;;;20.23;;
2562;SDS011;1291;51.420;6.970;2023-06-22T09:30:54;20.80;;;18.63;;
2562;SDS011;1291;51.420;6.970;2023-06-22T09:33:23;22.23;;;18.40;;
2562;SDS011;1291;51.420;6.970;2023-06-22T09:35:48;19.25;;;17.33;;
2562;SDS011;1291;51.420;6.970;2023-06-22T09:38:15;25.80;;;18.55;;
2562;SDS011;1291;51.420;6.970;2023-06-22T09:40:41;19.08;;;17.05;;
2562;SDS011;1291;51.420;6.970;2023-06-22T09:43:06;19.77;;;17.33;;
2562;SDS011;1291;51.420;6.970;2023-06-22T09:45:31;20.88;;;17.55;;
2562;SDS011;1291;51.420;6.970;2023-06-22T09:47:57;18.92;;;17.08;;
2562;SDS011;1291;51.420;6.970;2023-06-22T09:50:22;17.55;;;15.65;;
2562;SDS011;1291;51.420;6.970;2023-06-22T09:52:47;17.25;;;15.57;;
2562;SDS011;1291;51.420;6.970;2023-06-22T09:55:15;16.67;;;15.05;;
2562;SDS011;1291;51.420;6.970;2023-06-22T09:57:41;16.83;;;15.23;;
2562;SDS011;1291;51.420;6.970;2023-06-22T10:00:06;17.63;;;15.30;;
2562;SDS011;1291;51.420;6.970;2023-06-22T10:02:38;17.65;;;15.38;;
2562;SDS011;1291;51.420;6.970;2023-06-22T10:05:06;15.63;;;13.95;;
2562;SDS011;1291;51.420;6.970;2023-06-22T10:07:32;21.60;;;15.02;;
2562;SDS011;1291;51.420;6.970;2023-06-22T10:09:58;16.98;;;14.43;;
2562;SDS011;1291;51.420;6.970;2023-06-22T10:12:23;20.20;;;15.52;;
2562;SDS011;1291;51.420;6.970;2023-06-22T10:14:49;19.30;;;16.73;;
2562;SDS011;1291;51.420;6.970;2023-06-22T10:17:14;17.88;;;14.93;;
2562;SDS011;1291;51.420;6.970;2023-06-22T10:19:39;16.15;;;14.23;;
2562;SDS011;1291;51.420;6.970;2023-06-22T10:22:09;17.15;;;14.43;;
2562;SDS011;1291;51.420;6.970;2023-06-22T10:24:34;18.98;;;16.95;;
2562;SDS011;1291;51.420;6.970;2023-06-22T10:27:00;17.70;;;15.88;;
2562;SDS011;1291;51.420;6.970;2023-06-22T10:29:25;18.23;;;15.07;;
2562;SDS011;1291;51.420;6.970;2023-06-22T10:31:51;18.27;;;16.48;;
2562;SDS011;1291;51.420;6.970;2023-06-22T10:34:16;18.17;;;16.45;;
2562;SDS011;1291;51.420;6.970;2023-06-22T10:36:41;17.88;;;15.35;;
2562;SDS011;1291;51.420;6.970;2023-06-22T10:39:06;18.98;;;16.92;;
2562;SDS011;1291;51.420;6.970;2023-06-22T10:41:32;18.90;;;15.10;;
2562;SDS011;1291;51.420;6.970;2023-06-22T10:43:57;18.25;;;16.33;;
2562;SDS011;1291;51.420;6.970;2023-06-22T10:46:26;20.40;;;16.38;;
2562;SDS011;1291;51.420;6.970;2023-06-22T10:48:52;17.08;;;15.30;;
2562;SDS011;1291;51.420;6.970;2023-06-22T10:51:20;18.83;;;15.15;;
2562;SDS011;1291;51.420;6.970;2023-06-22T10:53:45;19.15;;;16.13;;
2562;SDS011;1291;51.420;6.970;2023-06-22T10:56:10;17.70;;;15.98;;
2562;SDS011;1291;51.420;6.970;2023-06-22T10:58:36;19.55;;;17.55;;
2562;SDS011;1291;51.420;6.970;2023-06-22T11:01:01;19.35;;;16.23;;
2562;SDS011;1291;51.420;6.970;2023-06-22T11:03:27;19.13;;;16.55;;
2562;SDS011;1291;51.420;6.970;2023-06-22T11:05:53;18.20;;;16.30;;
2562;SDS011;1291;51.420;6.970;2023-06-22T11:08:18;17.67;;;15.93;;
2562;SDS011;1291;51.420;6.970;2023-06-22T11:10:43;20.52;;;16.77;;
2562;SDS011;1291;51.420;6.970;2023-06-22T11:13:09;19.30;;;17.30;;
2562;SDS011;1291;51.420;6.970;2023-06-22T11:15:34;21.77;;;16.65;;
2562;SDS011;1291;51.420;6.970;2023-06-22T11:18:03;18.40;;;16.50;;
2562;SDS011;1291;51.420;6.970;2023-06-22T11:20:30;20.05;;;17.63;;
2562;SDS011;1291;51.420;6.970;2023-06-22T11:22:55;20.88;;;18.20;;
2562;SDS011;1291;51.420;6.970;2023-06-22T11:25:21;20.15;;;18.17;;
2562;SDS011;1291;51.420;6.970;2023-06-22T11:27:46;20.13;;;18.02;;
2562;SDS011;1291;51.420;6.970;2023-06-22T11:30:14;20.35;;;18.23;;
2562;SDS011;1291;51.420;6.970;2023-06-22T11:32:40;27.30;;;20.08;;
2562;SDS011;1291;51.420;6.970;2023-06-22T11:35:05;21.83;;;19.27;;
2562;SDS011;1291;51.420;6.970;2023-06-22T11:37:31;22.05;;;19.45;;
2562;SDS011;1291;51.420;6.970;2023-06-22T11:39:56;23.80;;;21.20;;
2562;SDS011;1291;51.420;6.970;2023-06-22T11:42:21;25.75;;;21.00;;
2562;SDS011;1291;51.420;6.970;2023-06-22T11:44:48;21.35;;;19.15;;
2562;SDS011;1291;51.420;6.970;2023-06-22T11:47:14;24.33;;;21.73;;
2562;SDS011;1291;51.420;6.970;2023-06-22T11:49:39;24.45;;;21.88;;
2562;SDS011;1291;51.420;6.970;2023-06-22T11:52:05;29.95;;;22.65;;
2562;SDS011;1291;51.420;6.970;2023-06-22T11:54:31;28.23;;;23.92;;
2562;SDS011;1291;51.420;6.970;2023-06-22T11:56:56;25.25;;;22.67;;
2562;SDS011;1291;51.420;6.970;2023-06-22T11:59:21;24.95;;;22.30;;
2562;SDS011;1291;51.420;6.970;2023-06-22T12:01:47;25.38;;;22.77;;
2562;SDS011;1291;51.420;6.970;2023-06-22T12:04:14;25.60;;;22.90;;
2562;SDS011;1291;51.420;6.970;2023-06-22T12:06:39;26.88;;;24.00;;
2562;SDS011;1291;51.420;6.970;2023-06-22T12:09:07;29.00;;;24.02;;
2562;SDS011;1291;51.420;6.970;2023-06-22T12:11:32;26.15;;;23.48;;
2562;SDS011;1291;51.420;6.970;2023-06-22T12:13:58;26.40;;;23.77;;
2562;SDS011;1291;51.420;6.970;2023-06-22T12:16:26;26.88;;;24.08;;
2562;SDS011;1291;51.420;6.970;2023-06-22T12:18:52;26.30;;;23.70;;
2562;SDS011;1291;51.420;6.970;2023-06-22T12:21:18;25.52;;;22.85;;
2562;SDS011;1291;51.420;6.970;2023-06-22T12:23:43;24.88;;;22.25;;
2562;SDS011;1291;51.420;6.970;2023-06-22T12:26:09;26.90;;;24.08;;
2562;SDS011;1291;51.420;6.970;2023-06-22T12:28:34;26.25;;;23.65;;
2562;SDS011;1291;51.420;6.970;2023-06-22T12:31:02;27.08;;;24.27;;
2562;SDS011;1291;51.420;6.970;2023-06-22T12:33:27;27.67;;;25.05;;
2562;SDS011;1291;51.420;6.970;2023-06-22T12:35:53;27.67;;;24.77;;
2562;SDS011;1291;51.420;6.970;2023-06-22T12:38:18;29.13;;;26.05;;
2562;SDS011;1291;51.420;6.970;2023-06-22T12:40:44;29.77;;;26.70;;
2562;SDS011;1291;51.420;6.970;2023-06-22T12:43:09;29.48;;;26.58;;
2562;SDS011;1291;51.420;6.970;2023-06-22T12:45:35;31.08;;;28.17;;
2562;SDS011;1291;51.420;6.970;2023-06-22T12:48:00;32.95;;;26.58;;
2562;SDS011;1291;51.420;6.970;2023-06-22T12:50:26;30.25;;;27.20;;
2562;SDS011;1291;51.420;6.970;2023-06-22T12:52:51;30.83;;;27.70;;
2562;SDS011;1291;51.420;6.970;2023-06-22T12:55:17;30.52;;;26.90;;
2562;SDS011;1291;51.420;6.970;2023-06-22T12:57:42;31.30;;;27.90;;
2562;SDS011;1291;51.420;6.970;2023-06-22T13:00:07;34.78;;;31.08;;
2562;SDS011;1291;51.420;6.970;2023-06-22T13:02:35;31.52;;;28.50;;
2562;SDS011;1291;51.420;6.970;2023-06-22T13:05:02;31.63;;;28.25;;
2562;SDS011;1291;51.420;6.970;2023-06-22T13:07:28;34.70;;;31.10;;
2562;SDS011;1291;51.420;6.970;2023-06-22T13:09:53;33.00;;;29.67;;
2562;SDS011;1291;51.420;6.970;2023-06-22T13:12:19;33.97;;;30.42;;
2562;SDS011;1291;51.420;6.970;2023-06-22T13:14:45;35.55;;;31.80;;
2562;SDS011;1291;51.420;6.970;2023-06-22T13:17:11;35.55;;;31.75;;
2562;SDS011;1291;51.420;6.970;2023-06-22T13:19:37;35.70;;;31.98;;
2562;SDS011;1291;51.420;6.970;2023-06-22T13:22:02;34.80;;;31.25;;
2562;SDS011;1291;51.420;6.970;2023-06-22T13:24:28;37.08;;;33.25;;
2562;SDS011;1291;51.420;6.970;2023-06-22T13:26:54;33.67;;;30.27;;
2562;SDS011;1291;51.420;6.970;2023-06-22T13:29:20;35.25;;;30.67;;
2562;SDS011;1291;51.420;6.970;2023-06-22T13:31:45;35.22;;;31.45;;
2562;SDS011;1291;51.420;6.970;2023-06-22T13:34:10;36.50;;;32.85;;
2562;SDS011;1291;51.420;6.970;2023-06-22T13:36:37;35.75;;;32.22;;
2562;SDS011;1291;51.420;6.970;2023-06-22T13:39:03;35.00;;;31.17;;
2562;SDS011;1291;51.420;6.970;2023-06-22T13:41:28;34.00;;;30.38;;
2562;SDS011;1291;51.420;6.970;2023-06-22T13:43:54;35.22;;;31.58;;
2562;SDS011;1291;51.420;6.970;2023-06-22T13:46:19;33.40;;;29.73;;
2562;SDS011;1291;51.420;6.970;2023-06-22T13:48:45;35.53;;;30.33;;
2562;SDS011;1291;51.420;6.970;2023-06-22T13:51:10;32.95;;;29.77;;
2562;SDS011;1291;51.420;6.970;2023-06-22T13:53:35;31.90;;;28.60;;
2562;SDS011;1291;51.420;6.970;2023-06-22T13:56:01;34.15;;;30.25;;
2562;SDS011;1291;51.420;6.970;2023-06-22T13:58:26;31.30;;;28.17;;
2562;SDS011;1291;51.420;6.970;2023-06-22T14:00:51;32.50;;;29.20;;
2562;SDS011;1291;51.420;6.970;2023-06-22T14:03:17;31.88;;;28.40;;
2562;SDS011;1291;51.420;6.970;2023-06-22T14:05:42;31.50;;;28.10;;
2562;SDS011;1291;51.420;6.970;2023-06-22T14:08:09;29.33;;;26.42;;
2562;SDS011;1291;51.420;6.970;2023-06-22T14:10:34;29.05;;;26.13;;
2562;SDS011;1291;51.420;6.970;2023-06-22T14:13:00;29.80;;;26.60;;
2562;SDS011;1291;51.420;6.970;2023-06-22T14:15:25;28.00;;;25.05;;
2562;SDS011;1291;51.420;6.970;2023-06-22T14:17:51;29.83;;;27.02;;
2562;SDS011;1291;51.420;6.970;2023-06-22T14:20:17;27.35;;;24.27;;
2562;SDS011;1291;51.420;6.970;2023-06-22T14:22:43;29.30;;;26.20;;
2562;SDS011;1291;51.420;6.970;2023-06-22T14:25:08;26.88;;;21.83;;
2562;SDS011;1291;51.420;6.970;2023-06-22T14:27:34;23.75;;;21.20;;
2562;SDS011;1291;51.420;6.970;2023-06-22T14:29:59;25.70;;;23.10;;
2562;SDS011;1291;51.420;6.970;2023-06-22T14:32:24;22.77;;;20.58;;
2562;SDS011;1291;51.420;6.970;2023-06-22T14:34:50;25.08;;;22.40;;
2562;SDS011;1291;51.420;6.970;2023-06-22T14:37:15;24.52;;;22.13;;
2562;SDS011;1291;51.420;6.970;2023-06-22T14:39:41;24.90;;;22.35;;
2562;SDS011;1291;51.420;6.970;2023-06-22T14:42:09;26.05;;;23.30;;
2562;SDS011;1291;51.420;6.970;2023-06-22T14:44:35;25.00;;;22.55;;
2562;SDS011;1291;51.420;6.970;2023-06-22T14:47:00;25.27;;;22.60;;
2562;SDS011;1291;51.420;6.970;2023-06-22T14:49:25;23.83;;;21.33;;
2562;SDS011;1291;51.420;6.970;2023-06-22T14:51:51;23.05;;;20.73;;
2562;SDS011;1291;51.420;6.970;2023-06-22T14:54:16;22.15;;;19.90;;
2562;SDS011;1291;51.420;6.970;2023-06-22T14:56:42;22.05;;;19.75;;